createdAt,value
2019-04-14T00:02:00.993Z,14.33
2019-04-14T00:04:42.458Z,14.80
2019-04-14T00:07:14.466Z,17.70
2019-04-14T00:09:47.391Z,17.97
2019-04-14T00:12:21.155Z,13.17
2019-04-14T00:14:53.421Z,14.77
2019-04-14T00:17:26.166Z,11.20
2019-04-14T00:19:58.806Z,12.93
2019-04-14T00:22:31.043Z,17.00
2019-04-14T00:25:04.480Z,19.17
2019-04-14T00:27:36.715Z,15.83
2019-04-14T00:30:09.731Z,12.70
2019-04-14T00:32:55.280Z,16.87
2019-04-14T00:36:00.467Z,13.07
2019-04-14T00:38:39.104Z,17.87
2019-04-14T00:41:44.888Z,9.90
2019-04-14T00:44:36.560Z,13.13
2019-04-14T00:47:14.029Z,8.83
2019-04-14T00:49:46.262Z,11.40
2019-04-14T00:52:18.876Z,11.53
2019-04-14T00:54:50.553Z,8.57
2019-04-14T00:57:22.431Z,20.17
2019-04-14T00:59:55.236Z,16.83
2019-04-14T01:02:27.529Z,12.10
2019-04-14T01:05:00.118Z,14.23
2019-04-14T01:07:32.732Z,10.20
2019-04-14T01:10:04.566Z,14.03
2019-04-14T01:12:36.698Z,12.43
2019-04-14T01:15:09.263Z,12.20
2019-04-14T01:17:41.784Z,9.73
2019-04-14T01:20:14.522Z,13.97
2019-04-14T01:22:47.260Z,8.60
2019-04-14T01:25:19.380Z,11.33
2019-04-14T01:27:51.742Z,10.60
2019-04-14T01:30:24.105Z,12.30
2019-04-14T01:32:56.503Z,13.07
2019-04-14T01:35:29.278Z,8.83
2019-04-14T01:38:01.643Z,11.00
2019-04-14T01:40:33.756Z,7.97
2019-04-14T01:43:06.018Z,14.87
2019-04-14T01:45:38.185Z,9.07
2019-04-14T01:48:10.540Z,9.33
2019-04-14T01:50:53.826Z,13.30
2019-04-14T01:53:40.071Z,11.97
2019-04-14T01:56:34.126Z,11.53
2019-04-14T01:59:06.716Z,9.90
2019-04-14T02:01:38.974Z,10.03
2019-04-14T02:04:11.658Z,9.33
2019-04-14T02:06:44.105Z,6.07
2019-04-14T02:09:16.288Z,10.53
2019-04-14T02:11:48.821Z,7.53
2019-04-14T02:14:21.224Z,9.77
2019-04-14T02:16:57.383Z,11.40
2019-04-14T02:19:26.349Z,7.93
2019-04-14T02:21:58.492Z,10.40
2019-04-14T02:24:30.982Z,7.33
2019-04-14T02:27:03.513Z,8.63
2019-04-14T02:29:36.225Z,8.20
2019-04-14T02:32:33.224Z,6.13
2019-04-14T02:35:12.887Z,14.80
2019-04-14T02:37:44.868Z,11.33
2019-04-14T02:40:21.486Z,7.67
2019-04-14T02:42:46.491Z,10.23
2019-04-14T02:45:29.566Z,6.13
2019-04-14T02:50:27.212Z,12.13
2019-04-14T02:55:32.423Z,11.57
2019-04-14T02:58:10.443Z,6.97
2019-04-14T03:03:21.603Z,9.70
2019-04-14T03:05:53.320Z,7.40
2019-04-14T03:08:26.069Z,8.23
2019-04-14T03:10:54.024Z,10.73
2019-04-14T03:13:29.395Z,11.43
2019-04-14T03:16:03.533Z,7.10
2019-04-14T03:18:52.137Z,8.43
2019-04-14T03:21:49.189Z,6.43
2019-04-14T03:24:29.112Z,6.33
2019-04-14T03:27:16.671Z,11.53
2019-04-14T03:30:08.236Z,4.07
2019-04-14T03:40:12.313Z,6.90
2019-04-14T03:45:16.691Z,5.57
2019-04-14T03:48:02.049Z,8.80
2019-04-14T03:52:59.602Z,9.20
2019-04-14T03:55:18.497Z,5.17
2019-04-14T03:57:34.837Z,10.37
2019-04-14T04:00:07.495Z,5.33
2019-04-14T04:02:40.204Z,7.50
2019-04-14T04:05:12.831Z,6.63
2019-04-14T04:07:45.363Z,9.00
2019-04-14T04:10:19.207Z,5.50
2019-04-14T04:12:51.162Z,7.27
2019-04-14T04:15:23.521Z,10.47
2019-04-14T04:18:02.643Z,7.27
2019-04-14T04:20:56.631Z,7.57
2019-04-14T04:23:49.535Z,8.40
2019-04-14T04:26:34.340Z,5.07
2019-04-14T04:29:24.474Z,8.67
2019-04-14T04:32:23.881Z,5.87
2019-04-14T04:35:26.094Z,7.57
2019-04-14T04:38:11.640Z,4.60
2019-04-14T04:40:43.981Z,9.10
2019-04-14T04:43:16.742Z,9.60
2019-04-14T04:45:49.541Z,7.63
2019-04-14T04:48:21.784Z,5.33
2019-04-14T04:50:54.213Z,8.83
2019-04-14T04:53:26.688Z,6.93
2019-04-14T04:55:59.279Z,8.90
2019-04-14T04:58:31.116Z,7.10
2019-04-14T05:01:03.514Z,8.40
2019-04-14T05:03:36.343Z,3.47
2019-04-14T05:06:30.979Z,6.03
2019-04-14T05:09:13.118Z,8.70
2019-04-14T05:12:06.687Z,12.97
2019-04-14T05:14:45.620Z,4.43
2019-04-14T05:17:19.138Z,6.27
2019-04-14T05:19:51.907Z,8.63
2019-04-14T05:22:24.744Z,5.20
2019-04-14T05:24:57.161Z,7.83
2019-04-14T05:27:30.515Z,6.77
2019-04-14T05:30:02.691Z,4.10
2019-04-14T05:32:34.776Z,6.87
2019-04-14T05:35:07.413Z,4.53
2019-04-14T05:37:40.048Z,6.93
2019-04-14T05:40:12.411Z,3.27
2019-04-14T05:42:45.062Z,3.33
2019-04-14T05:45:17.672Z,5.03
2019-04-14T05:47:52.167Z,6.00
2019-04-14T05:50:27.126Z,11.13
2019-04-14T05:52:59.953Z,6.37
2019-04-14T05:55:32.765Z,3.90
2019-04-14T05:58:05.984Z,5.87
2019-04-14T06:00:39.057Z,9.00
2019-04-14T06:03:12.347Z,4.97
2019-04-14T06:05:45.043Z,3.23
2019-04-14T06:08:16.771Z,9.77
2019-04-14T06:10:49.067Z,9.73
2019-04-14T06:13:21.040Z,7.97
2019-04-14T06:15:52.595Z,5.60
2019-04-14T06:18:24.655Z,7.03
2019-04-14T06:20:56.368Z,7.97
2019-04-14T06:23:28.424Z,8.23
2019-04-14T06:25:59.997Z,6.97
2019-04-14T06:28:31.889Z,6.13
2019-04-14T06:31:27.766Z,8.13
2019-04-14T06:34:12.001Z,7.70
2019-04-14T06:37:08.054Z,8.03
2019-04-14T06:39:47.482Z,5.47
2019-04-14T06:42:19.235Z,6.07
2019-04-14T06:44:51.355Z,7.57
2019-04-14T06:47:23.977Z,4.17
2019-04-14T06:49:55.947Z,7.17
2019-04-14T06:52:27.781Z,4.17
2019-04-14T06:54:59.535Z,10.77
2019-04-14T06:57:31.243Z,5.47
2019-04-14T07:00:03.415Z,6.43
2019-04-14T07:02:35.070Z,7.73
2019-04-14T07:05:07.407Z,6.13
2019-04-14T07:07:39.429Z,5.77
2019-04-14T07:10:10.905Z,9.27
2019-04-14T07:12:43.174Z,8.53
2019-04-14T07:15:15.524Z,5.43
2019-04-14T07:17:47.397Z,4.97
2019-04-14T07:20:19.209Z,6.83
2019-04-14T07:22:51.057Z,4.80
2019-04-14T07:25:23.322Z,7.63
2019-04-14T07:27:55.049Z,7.27
2019-04-14T07:30:44.706Z,8.63
2019-04-14T07:33:35.491Z,4.90
2019-04-14T07:36:40.621Z,8.00
2019-04-14T07:39:36.065Z,5.70
2019-04-14T07:42:21.386Z,5.23
2019-04-14T07:45:16.907Z,10.23
2019-04-14T07:47:52.947Z,4.43
2019-04-14T07:50:48.973Z,10.57
2019-04-14T07:53:40.407Z,6.47
2019-04-14T07:56:18.895Z,7.00
2019-04-14T07:59:13.196Z,6.33
2019-04-14T08:02:04.421Z,3.73
2019-04-14T08:04:48.357Z,4.23
2019-04-14T08:07:20.171Z,11.67
2019-04-14T08:09:51.855Z,6.37
2019-04-14T08:12:23.857Z,3.83
2019-04-14T08:14:55.642Z,9.63
2019-04-14T08:17:27.169Z,8.10
2019-04-14T08:19:59.166Z,7.80
2019-04-14T08:22:30.963Z,5.90
2019-04-14T08:25:02.817Z,9.43
2019-04-14T08:27:36.562Z,5.57
2019-04-14T08:30:09.064Z,6.17
2019-04-14T08:32:40.795Z,6.27
2019-04-14T08:35:12.719Z,7.03
2019-04-14T08:37:44.600Z,6.63
2019-04-14T08:40:16.345Z,7.50
2019-04-14T08:43:01.095Z,2.80
2019-04-14T08:45:50.126Z,4.27
2019-04-14T08:48:29.471Z,5.23
2019-04-14T08:51:10.040Z,3.67
2019-04-14T08:54:03.665Z,6.50
2019-04-14T08:56:43.796Z,3.93
2019-04-14T08:59:36.373Z,2.53
2019-04-14T09:02:28.605Z,5.17
2019-04-14T09:05:09.360Z,4.63
2019-04-14T09:08:05.183Z,7.87
2019-04-14T09:10:41.124Z,2.83
2019-04-14T09:13:12.965Z,4.50
2019-04-14T09:15:45.198Z,2.73
2019-04-14T09:18:16.953Z,4.30
2019-04-14T09:20:52.461Z,3.00
2019-04-14T09:23:24.187Z,5.47
2019-04-14T09:25:55.981Z,2.03
2019-04-14T09:28:27.702Z,5.13
2019-04-14T09:31:00.015Z,3.77
2019-04-14T09:33:31.914Z,4.37
2019-04-14T09:36:03.651Z,5.30
2019-04-14T09:38:35.565Z,3.10
2019-04-14T09:41:07.469Z,3.80
2019-04-14T09:43:39.423Z,5.07
2019-04-14T09:46:11.405Z,3.00
2019-04-14T09:48:44.256Z,5.87
2019-04-14T09:51:16.122Z,3.10
2019-04-14T09:53:49.320Z,4.23
2019-04-14T09:56:20.972Z,4.53
2019-04-14T09:58:52.581Z,4.30
2019-04-14T10:01:26.518Z,5.13
2019-04-14T10:03:58.401Z,5.13
2019-04-14T10:06:30.545Z,6.10
2019-04-14T10:09:02.445Z,6.77
2019-04-14T10:11:34.303Z,6.90
2019-04-14T10:14:07.019Z,4.77
2019-04-14T10:16:38.709Z,4.07
2019-04-14T10:19:10.325Z,3.50
2019-04-14T10:21:42.203Z,4.07
2019-04-14T10:24:14.065Z,6.00
2019-04-14T10:26:46.024Z,4.07
2019-04-14T10:29:17.941Z,3.80
2019-04-14T10:31:52.096Z,4.03
2019-04-14T10:34:23.857Z,4.03
2019-04-14T10:36:56.241Z,3.03
2019-04-14T10:39:28.081Z,3.77
2019-04-14T10:41:59.841Z,4.30
2019-04-14T10:44:31.669Z,4.83
2019-04-14T10:47:03.985Z,2.53
2019-04-14T10:49:36.157Z,3.60
2019-04-14T10:52:08.151Z,5.43
2019-04-14T10:54:39.991Z,5.57
2019-04-14T10:57:11.960Z,2.63
2019-04-14T10:59:43.741Z,3.87
2019-04-14T11:02:15.786Z,3.60
2019-04-14T11:04:47.699Z,4.30
2019-04-14T11:07:27.608Z,6.13
2019-04-14T11:09:59.481Z,4.70
2019-04-14T11:12:31.365Z,5.27
2019-04-14T11:15:03.375Z,3.87
2019-04-14T11:17:35.338Z,5.47
2019-04-14T11:20:07.799Z,3.97
2019-04-14T11:22:40.071Z,5.63
2019-04-14T11:25:12.001Z,5.20
2019-04-14T11:27:43.765Z,7.77
2019-04-14T11:30:20.075Z,5.70
2019-04-14T11:33:02.715Z,4.13
2019-04-14T11:35:55.358Z,5.90
2019-04-14T11:38:41.119Z,3.20
2019-04-14T11:41:17.565Z,5.50
2019-04-14T11:43:50.270Z,5.03
2019-04-14T11:46:22.804Z,3.87
2019-04-14T11:48:54.647Z,6.77
2019-04-14T11:51:27.103Z,5.27
2019-04-14T11:53:58.667Z,4.33
2019-04-14T11:56:30.430Z,4.50
2019-04-14T11:59:02.181Z,8.20
2019-04-14T12:01:55.099Z,5.53
2019-04-14T12:04:33.620Z,3.73
2019-04-14T12:07:24.557Z,6.63
2019-04-14T12:10:06.102Z,6.57
2019-04-14T12:12:37.793Z,4.83
2019-04-14T12:15:15.897Z,4.43
2019-04-14T12:17:42.693Z,6.33
2019-04-14T12:20:14.514Z,6.67
2019-04-14T12:22:46.442Z,3.37
2019-04-14T12:25:18.149Z,7.77
2019-04-14T12:27:53.460Z,3.43
2019-04-14T12:30:25.327Z,3.33
2019-04-14T12:32:57.171Z,2.47
2019-04-14T12:35:29.943Z,6.80
2019-04-14T12:38:01.705Z,3.97
2019-04-14T12:40:33.636Z,3.60
2019-04-14T12:43:32.650Z,3.10
2019-04-14T12:46:44.251Z,5.97
2019-04-14T12:49:20.801Z,5.37
2019-04-14T12:52:21.188Z,2.30
2019-04-14T12:54:45.311Z,3.03
2019-04-14T12:57:20.428Z,5.63
2019-04-14T12:59:51.901Z,3.83
2019-04-14T13:02:28.665Z,4.53
2019-04-14T13:05:00.427Z,6.87
2019-04-14T13:07:32.213Z,3.47
2019-04-14T13:10:05.772Z,8.30
2019-04-14T13:12:37.363Z,3.30
2019-04-14T13:15:08.453Z,5.27
2019-04-14T13:17:40.107Z,3.13
2019-04-14T13:20:12.129Z,5.63
2019-04-14T13:22:44.431Z,5.00
2019-04-14T13:25:16.488Z,2.47
2019-04-14T13:27:51.260Z,2.53
2019-04-14T13:30:35.406Z,2.70
2019-04-14T13:33:07.066Z,4.10
2019-04-14T13:35:38.852Z,5.57
2019-04-14T13:38:10.507Z,3.57
2019-04-14T13:40:42.483Z,2.83
2019-04-14T13:43:14.505Z,9.40
2019-04-14T13:45:46.577Z,5.33
2019-04-14T13:48:18.567Z,5.27
2019-04-14T13:50:50.217Z,4.80
2019-04-14T13:53:22.089Z,8.93
2019-04-14T13:55:53.832Z,5.00
2019-04-14T13:58:25.525Z,5.63
2019-04-14T14:00:57.158Z,4.03
2019-04-14T14:03:28.965Z,4.20
2019-04-14T14:06:00.581Z,3.23
2019-04-14T14:08:32.319Z,4.87
2019-04-14T14:11:12.905Z,5.40
2019-04-14T14:13:57.777Z,5.00
2019-04-14T14:16:52.948Z,8.27
2019-04-14T14:19:30.123Z,6.00
2019-04-14T14:22:21.213Z,3.70
2019-04-14T14:25:01.670Z,5.03
2019-04-14T14:27:33.269Z,5.03
2019-04-14T14:30:05.089Z,4.57
2019-04-14T14:32:37.139Z,4.70
2019-04-14T14:35:09.164Z,5.47
2019-04-14T14:37:40.945Z,3.33
2019-04-14T14:40:13.064Z,7.93
2019-04-14T14:42:44.729Z,3.13
2019-04-14T14:45:30.843Z,6.57
2019-04-14T14:48:22.941Z,4.90
2019-04-14T14:51:05.943Z,5.77
2019-04-14T14:53:39.053Z,3.63
2019-04-14T14:56:10.991Z,3.90
2019-04-14T14:58:45.269Z,3.30
2019-04-14T15:01:16.585Z,7.40
2019-04-14T15:03:48.553Z,4.17
2019-04-14T15:06:20.492Z,10.80
2019-04-14T15:08:52.567Z,5.70
2019-04-14T15:11:24.318Z,5.03
2019-04-14T15:13:56.257Z,2.87
2019-04-14T15:16:28.085Z,5.37
2019-04-14T15:18:59.896Z,4.83
2019-04-14T15:21:31.861Z,4.33
2019-04-14T15:24:03.417Z,6.47
2019-04-14T15:26:35.475Z,5.60
2019-04-14T15:29:08.356Z,3.17
2019-04-14T15:31:40.043Z,3.53
2019-04-14T15:34:12.288Z,4.43
2019-04-14T15:36:45.652Z,5.77
2019-04-14T15:39:17.525Z,6.57
2019-04-14T15:41:49.313Z,5.20
2019-04-14T15:44:21.053Z,5.03
2019-04-14T15:46:52.769Z,8.03
2019-04-14T15:49:24.725Z,6.97
2019-04-14T15:51:56.601Z,3.93
2019-04-14T15:54:28.965Z,4.80
2019-04-14T15:57:25.057Z,10.17
2019-04-14T16:00:25.099Z,7.47
2019-04-14T16:03:27.032Z,6.40
2019-04-14T16:06:26.034Z,3.33
2019-04-14T16:09:04.107Z,6.03
2019-04-14T16:11:57.574Z,6.50
2019-04-14T16:14:54.209Z,7.47
2019-04-14T16:17:49.164Z,5.40
2019-04-14T16:20:25.211Z,4.20
2019-04-14T16:22:58.420Z,4.20
2019-04-14T16:25:49.068Z,5.57
2019-04-14T16:28:33.809Z,10.00
2019-04-14T16:31:29.979Z,6.37
2019-04-14T16:34:16.989Z,5.27
2019-04-14T16:36:48.893Z,8.43
2019-04-14T16:39:20.778Z,8.47
2019-04-14T16:41:53.109Z,12.30
2019-04-14T16:44:24.783Z,6.20
2019-04-14T16:46:56.484Z,8.13
2019-04-14T16:49:28.417Z,8.47
2019-04-14T16:52:21.310Z,4.03
2019-04-14T16:55:01.972Z,5.37
2019-04-14T16:57:54.952Z,3.33
2019-04-14T17:00:36.981Z,4.37
2019-04-14T17:03:08.179Z,6.67
2019-04-14T17:05:39.907Z,8.57
2019-04-14T17:08:11.965Z,10.00
2019-04-14T17:10:43.735Z,6.40
2019-04-14T17:13:16.119Z,4.70
2019-04-14T17:15:56.323Z,6.43
2019-04-14T17:18:47.801Z,5.40
2019-04-14T17:21:32.312Z,5.80
2019-04-14T17:24:16.882Z,5.07
2019-04-14T17:27:10.697Z,5.00
2019-04-14T17:29:59.236Z,3.43
2019-04-14T17:32:46.746Z,5.00
2019-04-14T17:35:23.342Z,10.20
2019-04-14T17:38:08.601Z,10.27
2019-04-14T17:40:57.052Z,8.07
2019-04-14T17:43:36.607Z,7.53
2019-04-14T17:46:29.447Z,8.10
2019-04-14T17:49:38.295Z,8.90
2019-04-14T17:52:35.827Z,7.30
2019-04-14T17:55:12.860Z,9.20
2019-04-14T17:58:21.133Z,10.73
2019-04-14T18:01:05.890Z,11.40
2019-04-14T18:03:50.562Z,13.53
2019-04-14T18:06:43.690Z,10.87
2019-04-14T18:09:34.094Z,8.10
2019-04-14T18:12:11.823Z,8.23
2019-04-14T18:15:02.080Z,11.93
2019-04-14T18:17:53.918Z,12.77
2019-04-14T18:20:36.633Z,8.03
2019-04-14T18:23:08.339Z,7.03
2019-04-14T18:25:40.075Z,6.83
2019-04-14T18:28:41.907Z,6.53
2019-04-14T18:31:28.078Z,7.47
2019-04-14T18:34:22.793Z,8.00
2019-04-14T18:37:18.817Z,11.33
2019-04-14T18:40:09.513Z,9.70
2019-04-14T18:42:51.011Z,11.90
2019-04-14T18:45:47.805Z,10.03
2019-04-14T18:48:43.771Z,12.93
2019-04-14T18:51:33.017Z,11.53
2019-04-14T18:54:37.761Z,11.47
2019-04-14T18:57:36.168Z,14.63
2019-04-14T19:00:38.019Z,13.23
2019-04-14T19:03:09.791Z,14.60
2019-04-14T19:05:41.767Z,16.47
2019-04-14T19:08:13.604Z,16.67
2019-04-14T19:10:50.764Z,21.53
2019-04-14T19:13:29.783Z,15.13
2019-04-14T19:16:09.117Z,16.33
2019-04-14T19:18:46.618Z,14.57
2019-04-14T19:21:22.978Z,14.57
2019-04-14T19:23:54.816Z,17.83
2019-04-14T19:26:29.188Z,17.60
2019-04-14T19:29:01.190Z,22.73
2019-04-14T19:31:33.016Z,14.77
2019-04-14T19:34:05.051Z,16.27
2019-04-14T19:36:36.884Z,19.87
2019-04-14T19:39:11.185Z,20.23
2019-04-14T19:41:42.958Z,18.27
2019-04-14T19:44:14.598Z,22.53
2019-04-14T19:46:46.632Z,17.50
2019-04-14T19:49:18.326Z,19.17
2019-04-14T19:51:50.181Z,14.23
2019-04-14T19:54:21.955Z,20.37
2019-04-14T19:56:53.715Z,15.23
2019-04-14T19:59:25.419Z,15.03
2019-04-14T20:01:57.949Z,18.13
2019-04-14T20:04:29.755Z,19.20
2019-04-14T20:07:01.951Z,17.37
2019-04-14T20:09:33.685Z,18.53
2019-04-14T20:12:06.201Z,17.03
2019-04-14T20:14:38.076Z,14.27
2019-04-14T20:17:27.989Z,17.90
2019-04-14T20:20:30.335Z,13.10
2019-04-14T20:23:20.828Z,12.87
2019-04-14T20:26:13.690Z,15.63
2019-04-14T20:28:55.875Z,15.10
2019-04-14T20:31:47.086Z,12.67
2019-04-14T20:34:19.127Z,7.10
2019-04-14T20:36:50.749Z,14.57
2019-04-14T20:39:23.315Z,15.60
2019-04-14T20:41:55.197Z,15.53
2019-04-14T20:44:26.802Z,16.13
2019-04-14T20:47:00.130Z,15.17
2019-04-14T20:49:31.759Z,12.10
2019-04-14T20:52:03.636Z,10.97
2019-04-14T20:54:35.433Z,14.13
2019-04-14T20:57:07.211Z,15.33
2019-04-14T20:59:38.951Z,30.60
2019-04-14T21:02:49.877Z,10.90
2019-04-14T21:05:52.142Z,12.63
2019-04-14T21:08:43.145Z,10.23
2019-04-14T21:11:23.188Z,8.40
2019-04-14T21:14:15.430Z,15.30
2019-04-14T21:17:01.521Z,13.93
2019-04-14T21:19:49.597Z,11.67
2019-04-14T21:22:29.509Z,9.47
2019-04-14T21:25:24.260Z,9.33
2019-04-14T21:28:20.049Z,10.87
2019-04-14T21:30:58.132Z,10.57
2019-04-14T21:33:49.251Z,13.50
2019-04-14T21:36:32.971Z,13.87
2019-04-14T21:39:28.719Z,12.27
2019-04-14T21:42:02.668Z,10.53
2019-04-14T21:44:34.777Z,10.97
2019-04-14T21:47:06.803Z,12.03
2019-04-14T21:49:38.474Z,10.37
2019-04-14T21:52:48.987Z,12.73
2019-04-14T21:55:19.333Z,9.00
2019-04-14T21:58:00.356Z,13.73
2019-04-14T22:01:36.035Z,14.07
2019-04-14T22:04:22.422Z,12.17
2019-04-14T22:06:54.641Z,11.63
2019-04-14T22:09:32.075Z,14.87
2019-04-14T22:12:05.016Z,9.30
2019-04-14T22:14:36.922Z,13.07
2019-04-14T22:17:08.631Z,8.23
2019-04-14T22:19:39.419Z,12.60
2019-04-14T22:22:11.068Z,13.90
2019-04-14T22:24:44.339Z,10.27
2019-04-14T22:27:16.343Z,11.10
2019-04-14T22:29:47.997Z,11.03
2019-04-14T22:32:19.778Z,9.57
2019-04-14T22:34:53.029Z,10.57
2019-04-14T22:37:24.821Z,14.67
2019-04-14T22:39:56.535Z,13.40
2019-04-14T22:42:28.291Z,10.43
2019-04-14T22:45:00.979Z,8.77
2019-04-14T22:47:32.745Z,11.00
2019-04-14T22:50:04.377Z,11.57
2019-04-14T22:52:36.029Z,10.20
2019-04-14T22:55:08.077Z,11.50
2019-04-14T22:57:40.163Z,11.70
2019-04-14T23:00:17.140Z,16.53
2019-04-14T23:03:06.753Z,10.87
2019-04-14T23:06:05.914Z,7.83
2019-04-14T23:08:52.593Z,9.60
2019-04-14T23:11:43.722Z,12.17
2019-04-14T23:14:38.214Z,9.73
2019-04-14T23:17:28.406Z,8.07
2019-04-14T23:20:13.238Z,8.73
2019-04-14T23:23:03.865Z,10.33
2019-04-14T23:25:35.831Z,11.17
2019-04-14T23:28:07.536Z,12.73
2019-04-14T23:30:39.111Z,12.40
2019-04-14T23:33:10.843Z,9.87
2019-04-14T23:35:42.421Z,12.83
2019-04-14T23:38:14.304Z,9.37
2019-04-14T23:40:46.318Z,6.53
2019-04-14T23:43:18.170Z,13.17
2019-04-14T23:45:50.038Z,9.80
2019-04-14T23:48:21.978Z,8.63
2019-04-14T23:50:53.970Z,8.23
2019-04-14T23:53:25.796Z,9.50
2019-04-14T23:55:57.449Z,10.40
2019-04-14T23:58:28.947Z,11.80
